Impacts TAF Board
For situational awareness. Not to be used for flight planning purposes.
IDs:

KEWR - Newark Intl, NJ, US

Issued at 0718 UTC 27 Feb 2020
Updated at 0734 UTC 27 Feb 2020
Potential Impact None Slight Moderate High
Time<<27/20Z 27/21Z 27/22Z 27/23Z 28/00Z 28/01Z 28/02Z 28/03Z 28/04Z 28/05Z 28/06Z 28/07Z 28/08Z>>
Type PRVL PRVL PRVL PRVL PRVL PRVL PRVL PRVL PRVL PRVL PRVL PRVL PRVL
VIS >6 >6 >6 >6 >6 >6 >6 >6 >6 >6 >6 >6 >6
CIG -- -- -- -- -- -- -- -- -- -- -- -- --
Cover SCT SCT SCT SCT SCT SCT FEW FEW FEW FEW FEW FEW FEW
FltCat VFR VFR VFR VFR VFR VFR VFR VFR VFR VFR VFR VFR VFR
WX -- -- -- -- -- -- -- -- -- -- -- -- --
WDir 270 270 270 270 270 270 270 270 270 270 270 250 250
WSpd 22 22 22 22 22 22 18 18 18 18 18 16 16
WGst 35 35 35 35 35 35 28 28 28 28 28 26 26
Raw TAF
KEWR 270718Z 2707/2812 09012KT 5SM SHRA BR OVC008
  FM270900 15014G20KT 5SM SHRA BR BKN008 OVC010
  FM271000 22016G25KT 6SM BR VCSH BKN020
  FM271200 25018G30KT P6SM FEW030 BKN050
  FM271600 27022G35KT P6SM SCT050
  FM280200 27018G28KT P6SM FEW050
  FM280700 25016G26KT P6SM FEW050


METAR Board
Radar Display
Forecast Discussion
For situational awareness. Not to be used for flight planning purposes.